sensor_id;sensor_type;location;lat;lon;timestamp;P1;durP1;ratioP1;P2;durP2;ratioP2
2544;SDS011;36212;48.838;9.142;2022-12-24T00:00:16;4.35;;;1.88;;
2544;SDS011;36212;48.838;9.142;2022-12-24T00:02:49;6.97;;;2.53;;
2544;SDS011;36212;48.838;9.142;2022-12-24T00:05:22;3.47;;;1.67;;
2544;SDS011;36212;48.838;9.142;2022-12-24T00:07:55;4.95;;;1.80;;
2544;SDS011;36212;48.838;9.142;2022-12-24T00:10:28;8.80;;;2.10;;
2544;SDS011;36212;48.838;9.142;2022-12-24T00:13:01;5.47;;;2.08;;
2544;SDS011;36212;48.838;9.142;2022-12-24T00:15:33;6.63;;;2.00;;
2544;SDS011;36212;48.838;9.142;2022-12-24T00:18:06;2.42;;;2.13;;
2544;SDS011;36212;48.838;9.142;2022-12-24T00:20:38;4.75;;;1.73;;
2544;SDS011;36212;48.838;9.142;2022-12-24T00:23:10;2.97;;;1.50;;
2544;SDS011;36212;48.838;9.142;2022-12-24T00:25:43;5.45;;;2.30;;
2544;SDS011;36212;48.838;9.142;2022-12-24T00:28:16;1.80;;;1.70;;
2544;SDS011;36212;48.838;9.142;2022-12-24T00:30:48;6.47;;;2.25;;
2544;SDS011;36212;48.838;9.142;2022-12-24T00:33:20;4.15;;;1.80;;
2544;SDS011;36212;48.838;9.142;2022-12-24T00:35:55;3.88;;;2.17;;
2544;SDS011;36212;48.838;9.142;2022-12-24T00:38:27;6.82;;;2.15;;
2544;SDS011;36212;48.838;9.142;2022-12-24T00:41:00;5.65;;;1.80;;
2544;SDS011;36212;48.838;9.142;2022-12-24T00:43:35;3.15;;;1.77;;
2544;SDS011;36212;48.838;9.142;2022-12-24T00:46:08;2.33;;;1.70;;
2544;SDS011;36212;48.838;9.142;2022-12-24T00:48:40;6.20;;;2.20;;
2544;SDS011;36212;48.838;9.142;2022-12-24T00:51:13;3.60;;;2.17;;
2544;SDS011;36212;48.838;9.142;2022-12-24T00:53:47;2.55;;;2.13;;
2544;SDS011;36212;48.838;9.142;2022-12-24T00:56:20;3.47;;;2.00;;
2544;SDS011;36212;48.838;9.142;2022-12-24T00:58:53;8.95;;;1.98;;
2544;SDS011;36212;48.838;9.142;2022-12-24T01:01:25;2.45;;;1.90;;
2544;SDS011;36212;48.838;9.142;2022-12-24T01:03:58;4.75;;;2.10;;
2544;SDS011;36212;48.838;9.142;2022-12-24T01:07:08;5.63;;;2.20;;
2544;SDS011;36212;48.838;9.142;2022-12-24T01:09:40;7.45;;;2.45;;
2544;SDS011;36212;48.838;9.142;2022-12-24T01:12:12;4.20;;;1.90;;
2544;SDS011;36212;48.838;9.142;2022-12-24T01:14:44;3.55;;;2.25;;
2544;SDS011;36212;48.838;9.142;2022-12-24T01:17:17;6.95;;;2.30;;
2544;SDS011;36212;48.838;9.142;2022-12-24T01:19:49;2.85;;;2.00;;
2544;SDS011;36212;48.838;9.142;2022-12-24T01:22:21;3.00;;;2.15;;
2544;SDS011;36212;48.838;9.142;2022-12-24T01:24:55;4.05;;;2.30;;
2544;SDS011;36212;48.838;9.142;2022-12-24T01:27:27;7.72;;;3.25;;
2544;SDS011;36212;48.838;9.142;2022-12-24T01:30:00;3.83;;;2.10;;
2544;SDS011;36212;48.838;9.142;2022-12-24T01:32:34;3.88;;;2.15;;
2544;SDS011;36212;48.838;9.142;2022-12-24T01:35:07;8.60;;;2.40;;
2544;SDS011;36212;48.838;9.142;2022-12-24T01:37:41;5.88;;;2.20;;
2544;SDS011;36212;48.838;9.142;2022-12-24T01:40:14;6.43;;;2.40;;
2544;SDS011;36212;48.838;9.142;2022-12-24T01:43:28;9.02;;;2.97;;
2544;SDS011;36212;48.838;9.142;2022-12-24T01:46:19;7.38;;;2.78;;
2544;SDS011;36212;48.838;9.142;2022-12-24T01:48:59;4.10;;;2.40;;
2544;SDS011;36212;48.838;9.142;2022-12-24T01:51:40;3.75;;;2.40;;
2544;SDS011;36212;48.838;9.142;2022-12-24T01:54:30;5.28;;;2.22;;
2544;SDS011;36212;48.838;9.142;2022-12-24T01:57:15;5.43;;;2.60;;
2544;SDS011;36212;48.838;9.142;2022-12-24T01:59:57;7.28;;;2.75;;
2544;SDS011;36212;48.838;9.142;2022-12-24T02:02:39;10.70;;;2.90;;
2544;SDS011;36212;48.838;9.142;2022-12-24T02:08:26;8.02;;;3.08;;
2544;SDS011;36212;48.838;9.142;2022-12-24T02:11:20;3.90;;;2.80;;
2544;SDS011;36212;48.838;9.142;2022-12-24T02:13:54;7.82;;;2.55;;
2544;SDS011;36212;48.838;9.142;2022-12-24T02:16:36;7.78;;;2.40;;
2544;SDS011;36212;48.838;9.142;2022-12-24T02:26:44;3.20;;;2.33;;
2544;SDS011;36212;48.838;9.142;2022-12-24T02:29:58;4.57;;;2.45;;
2544;SDS011;36212;48.838;9.142;2022-12-24T02:41:32;5.10;;;2.47;;
2544;SDS011;36212;48.838;9.142;2022-12-24T02:44:49;9.80;;;2.70;;
2544;SDS011;36212;48.838;9.142;2022-12-24T02:47:31;5.80;;;2.60;;
2544;SDS011;36212;48.838;9.142;2022-12-24T02:50:05;8.20;;;3.13;;
2544;SDS011;36212;48.838;9.142;2022-12-24T02:52:43;6.18;;;2.55;;
2544;SDS011;36212;48.838;9.142;2022-12-24T03:05:26;5.32;;;2.30;;
2544;SDS011;36212;48.838;9.142;2022-12-24T03:11:35;11.02;;;3.40;;
2544;SDS011;36212;48.838;9.142;2022-12-24T03:14:15;7.93;;;2.88;;
2544;SDS011;36212;48.838;9.142;2022-12-24T03:16:48;10.65;;;2.90;;
2544;SDS011;36212;48.838;9.142;2022-12-24T03:19:21;4.70;;;2.45;;
2544;SDS011;36212;48.838;9.142;2022-12-24T03:21:56;6.18;;;2.80;;
2544;SDS011;36212;48.838;9.142;2022-12-24T03:24:36;5.60;;;2.72;;
2544;SDS011;36212;48.838;9.142;2022-12-24T03:27:08;6.20;;;2.72;;
2544;SDS011;36212;48.838;9.142;2022-12-24T03:29:44;4.03;;;2.78;;
2544;SDS011;36212;48.838;9.142;2022-12-24T03:32:22;6.45;;;3.20;;
2544;SDS011;36212;48.838;9.142;2022-12-24T03:35:00;6.93;;;2.78;;
2544;SDS011;36212;48.838;9.142;2022-12-24T03:37:33;4.22;;;2.10;;
2544;SDS011;36212;48.838;9.142;2022-12-24T03:40:05;4.55;;;2.30;;
2544;SDS011;36212;48.838;9.142;2022-12-24T03:42:38;4.00;;;2.08;;
2544;SDS011;36212;48.838;9.142;2022-12-24T03:45:10;3.22;;;2.28;;
2544;SDS011;36212;48.838;9.142;2022-12-24T03:47:42;5.50;;;2.50;;
2544;SDS011;36212;48.838;9.142;2022-12-24T03:50:14;6.25;;;2.47;;
2544;SDS011;36212;48.838;9.142;2022-12-24T03:52:47;4.82;;;2.08;;
2544;SDS011;36212;48.838;9.142;2022-12-24T03:55:19;7.35;;;2.72;;
2544;SDS011;36212;48.838;9.142;2022-12-24T03:57:51;6.50;;;2.58;;
2544;SDS011;36212;48.838;9.142;2022-12-24T04:00:24;5.88;;;2.53;;
2544;SDS011;36212;48.838;9.142;2022-12-24T04:02:56;4.15;;;2.40;;
2544;SDS011;36212;48.838;9.142;2022-12-24T04:05:28;7.25;;;3.13;;
2544;SDS011;36212;48.838;9.142;2022-12-24T04:08:00;4.18;;;2.30;;
2544;SDS011;36212;48.838;9.142;2022-12-24T04:10:32;6.15;;;2.50;;
2544;SDS011;36212;48.838;9.142;2022-12-24T04:13:04;5.90;;;2.63;;
2544;SDS011;36212;48.838;9.142;2022-12-24T04:15:36;9.50;;;3.47;;
2544;SDS011;36212;48.838;9.142;2022-12-24T04:18:08;6.82;;;2.92;;
2544;SDS011;36212;48.838;9.142;2022-12-24T04:20:40;6.03;;;2.53;;
2544;SDS011;36212;48.838;9.142;2022-12-24T04:23:12;7.43;;;2.80;;
2544;SDS011;36212;48.838;9.142;2022-12-24T04:25:44;5.13;;;2.85;;
2544;SDS011;36212;48.838;9.142;2022-12-24T04:28:16;12.05;;;3.30;;
2544;SDS011;36212;48.838;9.142;2022-12-24T04:30:48;4.82;;;3.00;;
2544;SDS011;36212;48.838;9.142;2022-12-24T04:33:20;4.35;;;2.28;;
2544;SDS011;36212;48.838;9.142;2022-12-24T04:35:53;7.75;;;3.28;;
2544;SDS011;36212;48.838;9.142;2022-12-24T04:38:28;5.90;;;2.85;;
2544;SDS011;36212;48.838;9.142;2022-12-24T04:41:03;5.25;;;3.30;;
2544;SDS011;36212;48.838;9.142;2022-12-24T04:43:41;8.48;;;3.35;;
2544;SDS011;36212;48.838;9.142;2022-12-24T04:46:33;6.93;;;2.78;;
2544;SDS011;36212;48.838;9.142;2022-12-24T04:49:06;7.13;;;2.72;;
2544;SDS011;36212;48.838;9.142;2022-12-24T04:51:38;6.30;;;3.20;;
2544;SDS011;36212;48.838;9.142;2022-12-24T04:54:10;7.47;;;2.90;;
2544;SDS011;36212;48.838;9.142;2022-12-24T04:56:44;4.72;;;2.72;;
2544;SDS011;36212;48.838;9.142;2022-12-24T04:59:16;9.65;;;2.92;;
2544;SDS011;36212;48.838;9.142;2022-12-24T05:01:48;5.72;;;3.03;;
2544;SDS011;36212;48.838;9.142;2022-12-24T05:04:20;7.38;;;2.45;;
2544;SDS011;36212;48.838;9.142;2022-12-24T05:06:52;7.90;;;3.13;;
2544;SDS011;36212;48.838;9.142;2022-12-24T05:09:24;9.27;;;3.30;;
2544;SDS011;36212;48.838;9.142;2022-12-24T05:11:56;7.22;;;2.78;;
2544;SDS011;36212;48.838;9.142;2022-12-24T05:14:28;6.85;;;2.83;;
2544;SDS011;36212;48.838;9.142;2022-12-24T05:17:00;4.40;;;2.60;;
2544;SDS011;36212;48.838;9.142;2022-12-24T05:19:32;6.32;;;3.55;;
2544;SDS011;36212;48.838;9.142;2022-12-24T05:22:05;3.53;;;2.20;;
2544;SDS011;36212;48.838;9.142;2022-12-24T05:25:15;5.95;;;3.65;;
2544;SDS011;36212;48.838;9.142;2022-12-24T05:28:25;6.68;;;2.53;;
2544;SDS011;36212;48.838;9.142;2022-12-24T05:30:57;6.78;;;2.85;;
2544;SDS011;36212;48.838;9.142;2022-12-24T05:33:30;7.15;;;2.70;;
2544;SDS011;36212;48.838;9.142;2022-12-24T05:36:02;5.07;;;2.55;;
2544;SDS011;36212;48.838;9.142;2022-12-24T05:38:34;4.78;;;2.60;;
2544;SDS011;36212;48.838;9.142;2022-12-24T05:41:07;5.35;;;2.35;;
2544;SDS011;36212;48.838;9.142;2022-12-24T05:43:40;4.50;;;2.60;;
2544;SDS011;36212;48.838;9.142;2022-12-24T05:46:13;8.10;;;2.60;;
2544;SDS011;36212;48.838;9.142;2022-12-24T05:48:49;9.50;;;3.05;;
2544;SDS011;36212;48.838;9.142;2022-12-24T05:51:23;5.38;;;2.65;;
2544;SDS011;36212;48.838;9.142;2022-12-24T05:53:55;6.55;;;2.70;;
2544;SDS011;36212;48.838;9.142;2022-12-24T05:56:27;4.00;;;2.80;;
2544;SDS011;36212;48.838;9.142;2022-12-24T05:58:59;2.50;;;2.22;;
2544;SDS011;36212;48.838;9.142;2022-12-24T06:01:32;5.78;;;2.40;;
2544;SDS011;36212;48.838;9.142;2022-12-24T06:04:04;4.85;;;2.55;;
2544;SDS011;36212;48.838;9.142;2022-12-24T06:06:36;10.93;;;2.58;;
2544;SDS011;36212;48.838;9.142;2022-12-24T06:09:08;8.93;;;2.95;;
2544;SDS011;36212;48.838;9.142;2022-12-24T06:11:41;10.73;;;2.95;;
2544;SDS011;36212;48.838;9.142;2022-12-24T06:14:13;6.20;;;2.90;;
2544;SDS011;36212;48.838;9.142;2022-12-24T06:16:45;6.82;;;2.70;;
2544;SDS011;36212;48.838;9.142;2022-12-24T06:19:17;4.78;;;2.88;;
2544;SDS011;36212;48.838;9.142;2022-12-24T06:21:49;11.43;;;3.58;;
2544;SDS011;36212;48.838;9.142;2022-12-24T06:24:21;9.13;;;3.40;;
2544;SDS011;36212;48.838;9.142;2022-12-24T06:26:53;5.93;;;2.65;;
2544;SDS011;36212;48.838;9.142;2022-12-24T06:29:25;6.70;;;2.75;;
2544;SDS011;36212;48.838;9.142;2022-12-24T06:31:57;5.82;;;2.67;;
2544;SDS011;36212;48.838;9.142;2022-12-24T06:34:30;6.10;;;3.20;;
2544;SDS011;36212;48.838;9.142;2022-12-24T06:37:02;6.47;;;2.55;;
2544;SDS011;36212;48.838;9.142;2022-12-24T06:39:34;7.05;;;2.17;;
2544;SDS011;36212;48.838;9.142;2022-12-24T06:42:06;5.18;;;2.50;;
2544;SDS011;36212;48.838;9.142;2022-12-24T06:44:38;7.10;;;2.70;;
2544;SDS011;36212;48.838;9.142;2022-12-24T06:47:10;6.55;;;2.50;;
2544;SDS011;36212;48.838;9.142;2022-12-24T06:49:43;3.38;;;2.70;;
2544;SDS011;36212;48.838;9.142;2022-12-24T06:52:15;5.68;;;2.70;;
2544;SDS011;36212;48.838;9.142;2022-12-24T06:54:47;4.75;;;2.55;;
2544;SDS011;36212;48.838;9.142;2022-12-24T06:57:20;6.72;;;2.47;;
2544;SDS011;36212;48.838;9.142;2022-12-24T06:59:52;6.63;;;2.83;;
2544;SDS011;36212;48.838;9.142;2022-12-24T07:02:24;8.63;;;2.58;;
2544;SDS011;36212;48.838;9.142;2022-12-24T07:04:56;4.05;;;2.67;;
2544;SDS011;36212;48.838;9.142;2022-12-24T07:07:28;4.07;;;2.35;;
2544;SDS011;36212;48.838;9.142;2022-12-24T07:10:00;3.92;;;2.50;;
2544;SDS011;36212;48.838;9.142;2022-12-24T07:12:33;6.88;;;2.13;;
2544;SDS011;36212;48.838;9.142;2022-12-24T07:15:06;4.88;;;2.88;;
2544;SDS011;36212;48.838;9.142;2022-12-24T07:17:40;6.35;;;2.25;;
2544;SDS011;36212;48.838;9.142;2022-12-24T07:20:12;5.68;;;2.40;;
2544;SDS011;36212;48.838;9.142;2022-12-24T07:22:45;8.68;;;3.42;;
2544;SDS011;36212;48.838;9.142;2022-12-24T07:25:18;5.00;;;3.28;;
2544;SDS011;36212;48.838;9.142;2022-12-24T07:27:50;10.15;;;2.72;;
2544;SDS011;36212;48.838;9.142;2022-12-24T07:30:22;5.32;;;2.50;;
2544;SDS011;36212;48.838;9.142;2022-12-24T07:32:54;2.78;;;2.38;;
2544;SDS011;36212;48.838;9.142;2022-12-24T07:35:27;10.82;;;3.33;;
2544;SDS011;36212;48.838;9.142;2022-12-24T07:37:59;8.40;;;2.75;;
2544;SDS011;36212;48.838;9.142;2022-12-24T07:40:32;3.53;;;2.85;;
2544;SDS011;36212;48.838;9.142;2022-12-24T07:43:05;5.18;;;2.67;;
2544;SDS011;36212;48.838;9.142;2022-12-24T07:45:38;4.70;;;2.83;;
2544;SDS011;36212;48.838;9.142;2022-12-24T07:48:10;3.45;;;3.03;;
2544;SDS011;36212;48.838;9.142;2022-12-24T07:50:42;6.95;;;2.80;;
2544;SDS011;36212;48.838;9.142;2022-12-24T07:53:14;7.03;;;3.10;;
2544;SDS011;36212;48.838;9.142;2022-12-24T07:55:46;9.05;;;2.90;;
2544;SDS011;36212;48.838;9.142;2022-12-24T07:58:19;6.53;;;2.58;;
2544;SDS011;36212;48.838;9.142;2022-12-24T08:00:55;3.55;;;2.65;;
2544;SDS011;36212;48.838;9.142;2022-12-24T08:03:28;10.65;;;3.08;;
2544;SDS011;36212;48.838;9.142;2022-12-24T08:06:01;4.90;;;3.10;;
2544;SDS011;36212;48.838;9.142;2022-12-24T08:08:34;4.00;;;2.53;;
2544;SDS011;36212;48.838;9.142;2022-12-24T08:11:08;5.80;;;3.55;;
2544;SDS011;36212;48.838;9.142;2022-12-24T08:13:41;7.50;;;3.60;;
2544;SDS011;36212;48.838;9.142;2022-12-24T08:16:13;3.00;;;2.67;;
2544;SDS011;36212;48.838;9.142;2022-12-24T08:18:45;5.45;;;3.40;;
2544;SDS011;36212;48.838;9.142;2022-12-24T08:21:17;6.72;;;3.00;;
2544;SDS011;36212;48.838;9.142;2022-12-24T08:23:49;9.95;;;3.10;;
2544;SDS011;36212;48.838;9.142;2022-12-24T08:26:21;9.48;;;2.97;;
2544;SDS011;36212;48.838;9.142;2022-12-24T08:28:53;6.10;;;2.70;;
2544;SDS011;36212;48.838;9.142;2022-12-24T08:31:26;4.10;;;2.50;;
2544;SDS011;36212;48.838;9.142;2022-12-24T08:33:58;5.13;;;2.85;;
2544;SDS011;36212;48.838;9.142;2022-12-24T08:36:33;5.25;;;2.33;;
2544;SDS011;36212;48.838;9.142;2022-12-24T08:39:06;3.63;;;2.50;;
2544;SDS011;36212;48.838;9.142;2022-12-24T08:41:39;8.25;;;2.35;;
2544;SDS011;36212;48.838;9.142;2022-12-24T08:44:11;9.80;;;3.75;;
2544;SDS011;36212;48.838;9.142;2022-12-24T08:46:43;8.60;;;3.13;;
2544;SDS011;36212;48.838;9.142;2022-12-24T08:49:16;6.00;;;2.70;;
2544;SDS011;36212;48.838;9.142;2022-12-24T08:51:48;5.40;;;2.65;;
2544;SDS011;36212;48.838;9.142;2022-12-24T08:54:22;8.50;;;3.03;;
2544;SDS011;36212;48.838;9.142;2022-12-24T08:56:55;4.30;;;3.10;;
2544;SDS011;36212;48.838;9.142;2022-12-24T08:59:28;5.32;;;2.90;;
2544;SDS011;36212;48.838;9.142;2022-12-24T09:02:00;5.65;;;2.60;;
2544;SDS011;36212;48.838;9.142;2022-12-24T09:04:33;9.18;;;3.25;;
2544;SDS011;36212;48.838;9.142;2022-12-24T09:07:10;5.65;;;3.50;;
2544;SDS011;36212;48.838;9.142;2022-12-24T09:09:44;13.23;;;3.80;;
2544;SDS011;36212;48.838;9.142;2022-12-24T09:12:17;8.45;;;3.15;;
2544;SDS011;36212;48.838;9.142;2022-12-24T09:14:52;7.18;;;2.80;;
2544;SDS011;36212;48.838;9.142;2022-12-24T09:17:36;4.25;;;3.00;;
2544;SDS011;36212;48.838;9.142;2022-12-24T09:20:08;12.10;;;4.07;;
2544;SDS011;36212;48.838;9.142;2022-12-24T09:22:41;7.25;;;4.20;;
2544;SDS011;36212;48.838;9.142;2022-12-24T09:25:13;5.93;;;4.15;;
2544;SDS011;36212;48.838;9.142;2022-12-24T09:27:46;7.35;;;4.53;;
2544;SDS011;36212;48.838;9.142;2022-12-24T09:30:18;12.07;;;4.93;;
2544;SDS011;36212;48.838;9.142;2022-12-24T09:32:50;12.23;;;7.30;;
2544;SDS011;36212;48.838;9.142;2022-12-24T09:35:22;12.63;;;5.97;;
2544;SDS011;36212;48.838;9.142;2022-12-24T09:37:58;8.20;;;4.82;;
2544;SDS011;36212;48.838;9.142;2022-12-24T09:40:39;6.97;;;3.75;;
2544;SDS011;36212;48.838;9.142;2022-12-24T09:43:22;7.57;;;3.97;;
2544;SDS011;36212;48.838;9.142;2022-12-24T09:46:13;6.00;;;3.60;;
2544;SDS011;36212;48.838;9.142;2022-12-24T09:49:10;5.05;;;3.28;;
2544;SDS011;36212;48.838;9.142;2022-12-24T09:51:55;8.07;;;3.90;;
2544;SDS011;36212;48.838;9.142;2022-12-24T09:54:41;13.88;;;4.00;;
2544;SDS011;36212;48.838;9.142;2022-12-24T09:57:37;10.18;;;3.78;;
2544;SDS011;36212;48.838;9.142;2022-12-24T10:00:32;7.03;;;3.05;;
2544;SDS011;36212;48.838;9.142;2022-12-24T10:03:14;8.48;;;3.05;;
2544;SDS011;36212;48.838;9.142;2022-12-24T10:06:07;7.35;;;2.78;;
2544;SDS011;36212;48.838;9.142;2022-12-24T10:12:18;7.38;;;3.15;;
2544;SDS011;36212;48.838;9.142;2022-12-24T10:18:18;8.07;;;3.33;;
2544;SDS011;36212;48.838;9.142;2022-12-24T10:24:38;5.55;;;2.85;;
2544;SDS011;36212;48.838;9.142;2022-12-24T10:27:50;5.05;;;3.10;;
2544;SDS011;36212;48.838;9.142;2022-12-24T10:30:31;5.50;;;3.35;;
2544;SDS011;36212;48.838;9.142;2022-12-24T10:33:09;10.93;;;3.58;;
2544;SDS011;36212;48.838;9.142;2022-12-24T10:35:58;11.57;;;3.08;;
2544;SDS011;36212;48.838;9.142;2022-12-24T10:38:31;5.95;;;2.88;;
2544;SDS011;36212;48.838;9.142;2022-12-24T10:41:04;8.32;;;3.20;;
2544;SDS011;36212;48.838;9.142;2022-12-24T10:43:37;6.03;;;3.63;;
2544;SDS011;36212;48.838;9.142;2022-12-24T10:46:22;6.93;;;3.33;;
2544;SDS011;36212;48.838;9.142;2022-12-24T10:49:05;7.88;;;3.22;;
2544;SDS011;36212;48.838;9.142;2022-12-24T10:57:41;7.03;;;2.45;;
2544;SDS011;36212;48.838;9.142;2022-12-24T11:00:26;8.85;;;3.33;;
2544;SDS011;36212;48.838;9.142;2022-12-24T11:03:58;6.05;;;3.30;;
2544;SDS011;36212;48.838;9.142;2022-12-24T11:06:09;8.65;;;3.63;;
2544;SDS011;36212;48.838;9.142;2022-12-24T11:08:52;9.68;;;3.08;;
2544;SDS011;36212;48.838;9.142;2022-12-24T11:11:42;14.93;;;3.30;;
2544;SDS011;36212;48.838;9.142;2022-12-24T11:14:15;6.47;;;2.92;;
2544;SDS011;36212;48.838;9.142;2022-12-24T11:16:51;8.10;;;4.38;;
2544;SDS011;36212;48.838;9.142;2022-12-24T11:19:31;5.32;;;2.38;;
2544;SDS011;36212;48.838;9.142;2022-12-24T11:22:22;8.77;;;3.13;;
2544;SDS011;36212;48.838;9.142;2022-12-24T11:27:49;9.48;;;4.43;;
2544;SDS011;36212;48.838;9.142;2022-12-24T11:30:27;6.25;;;2.70;;
2544;SDS011;36212;48.838;9.142;2022-12-24T11:35:46;5.82;;;3.42;;
2544;SDS011;36212;48.838;9.142;2022-12-24T11:38:29;7.35;;;3.28;;
2544;SDS011;36212;48.838;9.142;2022-12-24T11:41:05;9.68;;;2.90;;
2544;SDS011;36212;48.838;9.142;2022-12-24T11:43:42;8.82;;;2.90;;
2544;SDS011;36212;48.838;9.142;2022-12-24T11:46:38;5.18;;;2.45;;
2544;SDS011;36212;48.838;9.142;2022-12-24T11:49:21;6.03;;;2.78;;
2544;SDS011;36212;48.838;9.142;2022-12-24T11:52:13;3.17;;;2.60;;
2544;SDS011;36212;48.838;9.142;2022-12-24T11:55:02;10.52;;;3.40;;
2544;SDS011;36212;48.838;9.142;2022-12-24T12:01:11;9.43;;;3.70;;
2544;SDS011;36212;48.838;9.142;2022-12-24T12:04:19;5.25;;;2.72;;
2544;SDS011;36212;48.838;9.142;2022-12-24T12:06:59;7.85;;;2.80;;
2544;SDS011;36212;48.838;9.142;2022-12-24T12:10:05;5.93;;;2.55;;
2544;SDS011;36212;48.838;9.142;2022-12-24T12:12:59;5.18;;;2.90;;
2544;SDS011;36212;48.838;9.142;2022-12-24T12:15:54;3.67;;;2.70;;
2544;SDS011;36212;48.838;9.142;2022-12-24T12:18:43;7.40;;;2.90;;
2544;SDS011;36212;48.838;9.142;2022-12-24T12:21:41;6.72;;;3.75;;
2544;SDS011;36212;48.838;9.142;2022-12-24T12:24:20;7.78;;;2.88;;
2544;SDS011;36212;48.838;9.142;2022-12-24T12:27:11;9.95;;;3.75;;
2544;SDS011;36212;48.838;9.142;2022-12-24T12:30:19;6.65;;;3.25;;
2544;SDS011;36212;48.838;9.142;2022-12-24T12:36:54;7.57;;;3.13;;
2544;SDS011;36212;48.838;9.142;2022-12-24T12:39:55;9.73;;;5.38;;
2544;SDS011;36212;48.838;9.142;2022-12-24T12:42:49;6.95;;;2.90;;
2544;SDS011;36212;48.838;9.142;2022-12-24T12:46:13;8.18;;;3.78;;
2544;SDS011;36212;48.838;9.142;2022-12-24T12:52:54;8.63;;;3.25;;
2544;SDS011;36212;48.838;9.142;2022-12-24T13:05:38;8.40;;;3.30;;
2544;SDS011;36212;48.838;9.142;2022-12-24T13:21:38;8.02;;;3.15;;
2544;SDS011;36212;48.838;9.142;2022-12-24T13:24:33;5.50;;;3.60;;
2544;SDS011;36212;48.838;9.142;2022-12-24T13:27:47;9.02;;;3.97;;
2544;SDS011;36212;48.838;9.142;2022-12-24T13:33:57;10.02;;;3.13;;
2544;SDS011;36212;48.838;9.142;2022-12-24T13:43:07;6.50;;;3.13;;
2544;SDS011;36212;48.838;9.142;2022-12-24T13:45:47;8.95;;;3.28;;
2544;SDS011;36212;48.838;9.142;2022-12-24T13:48:29;11.85;;;3.30;;
2544;SDS011;36212;48.838;9.142;2022-12-24T13:51:18;6.13;;;2.70;;
2544;SDS011;36212;48.838;9.142;2022-12-24T13:54:02;9.25;;;2.65;;
2544;SDS011;36212;48.838;9.142;2022-12-24T14:04:07;24.17;;;11.38;;
2544;SDS011;36212;48.838;9.142;2022-12-24T14:07:08;7.68;;;3.47;;
2544;SDS011;36212;48.838;9.142;2022-12-24T14:10:37;12.18;;;3.47;;
2544;SDS011;36212;48.838;9.142;2022-12-24T14:16:47;8.80;;;2.95;;
2544;SDS011;36212;48.838;9.142;2022-12-24T14:20:01;7.45;;;3.95;;
2544;SDS011;36212;48.838;9.142;2022-12-24T14:22:48;12.07;;;3.55;;
2544;SDS011;36212;48.838;9.142;2022-12-24T14:25:37;10.02;;;3.97;;
2544;SDS011;36212;48.838;9.142;2022-12-24T14:32:18;8.77;;;4.10;;
2544;SDS011;36212;48.838;9.142;2022-12-24T14:47:52;8.18;;;4.20;;
2544;SDS011;36212;48.838;9.142;2022-12-24T14:54:50;8.57;;;4.57;;
2544;SDS011;36212;48.838;9.142;2022-12-24T15:07:03;7.85;;;4.53;;
2544;SDS011;36212;48.838;9.142;2022-12-24T15:09:47;9.68;;;4.40;;
2544;SDS011;36212;48.838;9.142;2022-12-24T15:13:01;10.77;;;5.38;;
2544;SDS011;36212;48.838;9.142;2022-12-24T15:16:01;10.40;;;5.50;;
2544;SDS011;36212;48.838;9.142;2022-12-24T15:19:25;11.32;;;4.93;;
2544;SDS011;36212;48.838;9.142;2022-12-24T15:22:29;9.68;;;4.60;;
2544;SDS011;36212;48.838;9.142;2022-12-24T15:25:22;9.80;;;4.93;;
2544;SDS011;36212;48.838;9.142;2022-12-24T15:28:22;8.50;;;4.97;;
2544;SDS011;36212;48.838;9.142;2022-12-24T15:34:39;17.75;;;5.28;;
2544;SDS011;36212;48.838;9.142;2022-12-24T15:37:34;7.97;;;4.45;;
2544;SDS011;36212;48.838;9.142;2022-12-24T15:40:19;10.25;;;4.85;;
2544;SDS011;36212;48.838;9.142;2022-12-24T15:43:01;12.68;;;5.28;;
2544;SDS011;36212;48.838;9.142;2022-12-24T15:45:45;10.75;;;4.57;;
2544;SDS011;36212;48.838;9.142;2022-12-24T15:48:33;7.85;;;4.72;;
2544;SDS011;36212;48.838;9.142;2022-12-24T15:51:31;7.75;;;5.20;;
2544;SDS011;36212;48.838;9.142;2022-12-24T15:54:18;9.20;;;4.72;;
2544;SDS011;36212;48.838;9.142;2022-12-24T15:57:20;8.65;;;5.05;;
2544;SDS011;36212;48.838;9.142;2022-12-24T16:00:19;8.15;;;4.68;;
2544;SDS011;36212;48.838;9.142;2022-12-24T16:03:31;9.60;;;7.18;;
2544;SDS011;36212;48.838;9.142;2022-12-24T16:06:27;14.45;;;7.05;;
2544;SDS011;36212;48.838;9.142;2022-12-24T16:09:49;12.57;;;6.90;;
2544;SDS011;36212;48.838;9.142;2022-12-24T16:12:59;9.65;;;6.55;;
2544;SDS011;36212;48.838;9.142;2022-12-24T16:15:55;13.77;;;6.30;;
2544;SDS011;36212;48.838;9.142;2022-12-24T16:18:41;11.25;;;6.18;;
2544;SDS011;36212;48.838;9.142;2022-12-24T16:21:40;13.13;;;6.72;;
2544;SDS011;36212;48.838;9.142;2022-12-24T16:24:31;11.27;;;6.85;;
2544;SDS011;36212;48.838;9.142;2022-12-24T16:27:17;8.15;;;6.10;;
2544;SDS011;36212;48.838;9.142;2022-12-24T16:30:02;12.35;;;6.43;;
2544;SDS011;36212;48.838;9.142;2022-12-24T16:32:55;13.43;;;8.02;;
2544;SDS011;36212;48.838;9.142;2022-12-24T16:35:43;12.95;;;6.95;;
2544;SDS011;36212;48.838;9.142;2022-12-24T16:38:31;13.57;;;8.10;;
2544;SDS011;36212;48.838;9.142;2022-12-24T16:41:50;14.63;;;7.97;;
2544;SDS011;36212;48.838;9.142;2022-12-24T16:45:41;16.75;;;8.90;;
2544;SDS011;36212;48.838;9.142;2022-12-24T16:48:25;12.35;;;7.80;;
2544;SDS011;36212;48.838;9.142;2022-12-24T16:51:09;16.83;;;8.82;;
2544;SDS011;36212;48.838;9.142;2022-12-24T16:53:45;17.10;;;8.38;;
2544;SDS011;36212;48.838;9.142;2022-12-24T16:56:25;14.02;;;8.57;;
2544;SDS011;36212;48.838;9.142;2022-12-24T16:59:15;12.88;;;7.13;;
2544;SDS011;36212;48.838;9.142;2022-12-24T17:01:59;9.93;;;7.40;;
2544;SDS011;36212;48.838;9.142;2022-12-24T17:04:36;16.92;;;8.13;;
2544;SDS011;36212;48.838;9.142;2022-12-24T17:07:17;14.02;;;7.85;;
2544;SDS011;36212;48.838;9.142;2022-12-24T17:09:59;16.92;;;7.93;;
2544;SDS011;36212;48.838;9.142;2022-12-24T17:12:49;13.63;;;7.00;;
2544;SDS011;36212;48.838;9.142;2022-12-24T17:15:44;11.00;;;6.68;;
2544;SDS011;36212;48.838;9.142;2022-12-24T17:18:20;11.00;;;7.32;;
2544;SDS011;36212;48.838;9.142;2022-12-24T17:21:14;14.15;;;7.80;;
2544;SDS011;36212;48.838;9.142;2022-12-24T17:24:25;9.75;;;7.72;;
2544;SDS011;36212;48.838;9.142;2022-12-24T17:27:03;11.30;;;7.28;;
2544;SDS011;36212;48.838;9.142;2022-12-24T17:29:39;14.75;;;9.35;;
2544;SDS011;36212;48.838;9.142;2022-12-24T17:32:14;11.00;;;8.57;;
2544;SDS011;36212;48.838;9.142;2022-12-24T17:34:53;17.55;;;8.57;;
2544;SDS011;36212;48.838;9.142;2022-12-24T17:37:31;13.57;;;8.82;;
2544;SDS011;36212;48.838;9.142;2022-12-24T17:40:13;13.60;;;8.52;;
2544;SDS011;36212;48.838;9.142;2022-12-24T17:42:53;15.60;;;9.65;;
2544;SDS011;36212;48.838;9.142;2022-12-24T17:45:38;23.95;;;8.82;;
2544;SDS011;36212;48.838;9.142;2022-12-24T17:48:43;18.95;;;9.05;;
2544;SDS011;36212;48.838;9.142;2022-12-24T17:51:21;12.90;;;9.05;;
2544;SDS011;36212;48.838;9.142;2022-12-24T17:54:24;13.63;;;8.68;;
2544;SDS011;36212;48.838;9.142;2022-12-24T17:57:10;11.98;;;7.22;;
2544;SDS011;36212;48.838;9.142;2022-12-24T18:00:00;11.60;;;7.32;;
2544;SDS011;36212;48.838;9.142;2022-12-24T18:02:43;11.25;;;7.35;;
2544;SDS011;36212;48.838;9.142;2022-12-24T18:05:32;12.40;;;7.90;;
2544;SDS011;36212;48.838;9.142;2022-12-24T18:08:42;13.93;;;7.07;;
2544;SDS011;36212;48.838;9.142;2022-12-24T18:11:21;9.10;;;6.38;;
2544;SDS011;36212;48.838;9.142;2022-12-24T18:14:16;11.77;;;7.63;;
2544;SDS011;36212;48.838;9.142;2022-12-24T18:16:54;9.60;;;7.13;;
2544;SDS011;36212;48.838;9.142;2022-12-24T18:19:34;16.38;;;8.43;;
2544;SDS011;36212;48.838;9.142;2022-12-24T18:22:09;17.10;;;8.27;;
2544;SDS011;36212;48.838;9.142;2022-12-24T18:25:07;12.32;;;7.28;;
2544;SDS011;36212;48.838;9.142;2022-12-24T18:28:07;12.77;;;7.15;;
2544;SDS011;36212;48.838;9.142;2022-12-24T18:30:43;11.65;;;7.75;;
2544;SDS011;36212;48.838;9.142;2022-12-24T18:33:38;17.05;;;7.95;;
2544;SDS011;36212;48.838;9.142;2022-12-24T18:36:27;13.73;;;8.77;;
2544;SDS011;36212;48.838;9.142;2022-12-24T18:39:24;12.73;;;8.27;;
2544;SDS011;36212;48.838;9.142;2022-12-24T18:42:05;8.90;;;6.60;;
2544;SDS011;36212;48.838;9.142;2022-12-24T18:44:46;10.50;;;7.07;;